Time;durP1;ratioP1;P1;durP2;ratioP2;P2;SDS_P1;SDS_P2;PMS_P1;PMS_P2;Temp;Humidity;BMP_temperature;BMP_pressure;BME280_temperature;BME280_humidity;BME280_pressure;Samples;Min_cycle;Max_cycle;Signal;HPM_P1;HPM_P2
2022/08/10 00:02:39;;;;;;;1.40;1.30;;;25.10;47.80;;;;;;5038577;28;20013;-86
2022/08/10 00:05:05;;;;;;;1.55;1.20;;;25.00;47.80;;;;;;4979384;28;20037;-86
2022/08/10 00:07:31;;;;;;;1.85;1.40;;;25.00;47.80;;;;;;5005611;28;20038;-86
2022/08/10 00:09:57;;;;;;;1.30;1.20;;;24.90;47.80;;;;;;4989130;28;20108;-85
2022/08/10 00:12:23;;;;;;;1.35;1.10;;;24.90;47.90;;;;;;4989494;28;20041;-86
2022/08/10 00:14:49;;;;;;;1.70;1.20;;;24.90;47.90;;;;;;5013636;28;20026;-86
2022/08/10 00:17:15;;;;;;;1.40;1.15;;;24.80;47.90;;;;;;4967437;28;20049;-86
2022/08/10 00:19:40;;;;;;;1.40;1.20;;;24.80;47.90;;;;;;4976239;28;20052;-86
2022/08/10 00:22:06;;;;;;;1.10;1.10;;;24.80;48.00;;;;;;4987451;28;20026;-86
2022/08/10 00:24:32;;;;;;;1.10;1.00;;;24.80;48.00;;;;;;4975445;28;20057;-86
2022/08/10 00:26:57;;;;;;;1.25;1.10;;;24.70;48.00;;;;;;4998552;28;20489;-86
2022/08/10 00:29:23;;;;;;;1.25;1.02;;;24.70;48.10;;;;;;4993020;28;20026;-86
2022/08/10 00:31:49;;;;;;;1.20;1.10;;;24.70;48.10;;;;;;4980351;28;20374;-86
2022/08/10 00:34:15;;;;;;;1.25;1.10;;;24.60;48.20;;;;;;4959866;28;20131;-86
2022/08/10 00:36:40;;;;;;;1.38;1.20;;;24.60;48.20;;;;;;4991616;28;20049;-86
2022/08/10 00:39:06;;;;;;;1.10;1.10;;;24.60;48.20;;;;;;4982961;28;20053;-86
2022/08/10 00:41:32;;;;;;;1.38;1.27;;;24.60;48.30;;;;;;4993282;28;21529;-86
2022/08/10 00:43:58;;;;;;;1.48;1.20;;;24.50;48.30;;;;;;4962153;28;20030;-86
2022/08/10 00:46:23;;;;;;;1.23;1.13;;;24.50;48.30;;;;;;4978421;28;20525;-85
2022/08/10 00:48:49;;;;;;;1.20;1.10;;;24.50;48.40;;;;;;4959551;28;20022;-86
2022/08/10 00:51:15;;;;;;;1.10;1.02;;;24.40;48.40;;;;;;4974539;28;20073;-86
2022/08/10 00:53:41;;;;;;;1.10;1.00;;;24.40;49.00;;;;;;4991831;28;20057;-86
2022/08/10 00:56:07;;;;;;;2.03;1.20;;;24.40;48.50;;;;;;4974910;28;20018;-87
2022/08/10 00:58:34;;;;;;;1.50;1.20;;;24.40;48.50;;;;;;4961843;28;20042;-86
2022/08/10 01:00:59;;;;;;;0.98;0.98;;;24.40;48.50;;;;;;4962023;28;20030;-87
2022/08/10 01:03:25;;;;;;;0.95;0.95;;;24.30;48.60;;;;;;4994226;28;20040;-85
2022/08/10 01:06:20;;;;;;;1.20;1.10;;;24.30;48.60;;;;;;4991385;28;20040;-86
2022/08/10 01:09:05;;;;;;;1.43;1.00;;;24.30;48.70;;;;;;5004836;28;20060;-87
2022/08/10 01:11:48;;;;;;;1.40;1.20;;;24.20;48.60;;;;;;4985211;28;20030;-85
2022/08/10 01:14:37;;;;;;;1.60;1.02;;;24.20;48.80;;;;;;4984378;28;20026;-87
2022/08/10 01:17:14;;;;;;;1.13;1.02;;;24.10;48.80;;;;;;5001294;28;20160;-87
2022/08/10 01:19:54;;;;;;;1.30;1.20;;;24.10;48.80;;;;;;5011978;28;20030;-86
2022/08/10 01:22:57;;;;;;;0.80;0.80;;;24.10;48.80;;;;;;5012826;28;20021;-85
2022/08/10 01:25:57;;;;;;;1.23;0.90;;;24.00;49.00;;;;;;4991145;28;20033;-86
2022/08/10 01:28:48;;;;;;;0.90;0.90;;;24.00;48.90;;;;;;4998698;28;20781;-87
2022/08/10 01:31:19;;;;;;;1.02;1.02;;;24.00;49.10;;;;;;4987043;28;20034;-86
2022/08/10 01:33:56;;;;;;;0.95;0.95;;;23.90;49.00;;;;;;4982727;28;20537;-86
2022/08/10 01:36:37;;;;;;;0.90;0.90;;;23.90;49.10;;;;;;4999834;28;20041;-88
2022/08/10 01:39:06;;;;;;;1.00;1.00;;;23.90;49.10;;;;;;4979475;28;20379;-86
2022/08/10 01:41:44;;;;;;;1.10;1.00;;;23.90;49.10;;;;;;4980879;28;20052;-85
2022/08/10 01:44:15;;;;;;;1.13;1.02;;;23.80;49.20;;;;;;5009501;28;20455;-85
2022/08/10 01:46:49;;;;;;;1.08;0.95;;;23.80;49.10;;;;;;4999984;28;20493;-86
2022/08/10 01:49:18;;;;;;;1.38;0.93;;;23.80;49.20;;;;;;4992954;28;20211;-85
2022/08/10 01:51:55;;;;;;;1.00;0.90;;;23.80;49.30;;;;;;4992401;28;20100;-86
2022/08/10 01:54:24;;;;;;;1.05;0.90;;;23.70;49.30;;;;;;5000617;28;20140;-86
2022/08/10 01:56:56;;;;;;;0.93;0.90;;;23.70;49.30;;;;;;4988694;28;20052;-86
2022/08/10 01:59:31;;;;;;;0.90;0.90;;;23.70;49.40;;;;;;5013543;28;20021;-86
2022/08/10 02:02:07;;;;;;;1.15;1.00;;;23.60;49.40;;;;;;5018071;28;20014;-85
2022/08/10 02:04:36;;;;;;;0.80;0.80;;;23.60;49.40;;;;;;4982416;28;20040;-85
2022/08/10 02:07:04;;;;;;;0.80;0.80;;;23.60;49.40;;;;;;4967530;28;20053;-86
2022/08/10 02:09:33;;;;;;;1.45;1.20;;;23.60;49.50;;;;;;4982864;28;20120;-84
2022/08/10 02:12:04;;;;;;;1.20;1.10;;;23.60;49.50;;;;;;5008690;28;20025;-86
2022/08/10 02:14:39;;;;;;;0.93;0.93;;;23.60;49.60;;;;;;5008208;28;20108;-86
2022/08/10 02:17:12;;;;;;;0.90;0.90;;;23.50;49.60;;;;;;5008488;28;20116;-86
2022/08/10 02:19:40;;;;;;;1.10;1.00;;;23.50;49.60;;;;;;4993989;28;20046;-86
2022/08/10 02:22:08;;;;;;;0.95;0.95;;;23.50;49.60;;;;;;4978058;28;20036;-87
2022/08/10 02:24:37;;;;;;;0.90;0.90;;;23.50;49.70;;;;;;5008330;28;20029;-87
2022/08/10 02:27:04;;;;;;;0.80;0.80;;;23.50;49.70;;;;;;4984420;28;20033;-86
2022/08/10 02:29:32;;;;;;;1.20;1.00;;;23.40;49.70;;;;;;4996956;28;20112;-87
2022/08/10 02:31:58;;;;;;;0.98;0.98;;;23.40;49.80;;;;;;4944244;28;20084;-86
2022/08/10 02:34:25;;;;;;;1.00;0.90;;;23.40;49.80;;;;;;4981766;28;20026;-86
2022/08/10 02:36:54;;;;;;;1.80;1.10;;;23.30;49.90;;;;;;4978094;28;20052;-86
2022/08/10 02:39:21;;;;;;;0.90;0.90;;;23.30;49.80;;;;;;4980527;28;20026;-85
2022/08/10 02:41:51;;;;;;;1.08;1.08;;;23.30;49.90;;;;;;4976156;28;20110;-86
2022/08/10 02:44:24;;;;;;;1.25;1.00;;;23.20;49.90;;;;;;4973991;28;20065;-86
2022/08/10 02:46:57;;;;;;;0.85;0.77;;;23.20;50.00;;;;;;4990792;28;20072;-86
2022/08/10 02:49:30;;;;;;;1.77;1.00;;;23.20;50.00;;;;;;5011107;28;20034;-85
2022/08/10 02:52:10;;;;;;;1.17;1.08;;;23.20;50.00;;;;;;4991946;28;20025;-86
2022/08/10 02:54:42;;;;;;;1.20;1.10;;;23.20;50.10;;;;;;4996246;28;20116;-85
2022/08/10 02:57:16;;;;;;;1.10;1.00;;;23.10;50.00;;;;;;4973589;28;20053;-86
2022/08/10 02:59:46;;;;;;;1.13;1.00;;;23.10;50.10;;;;;;5002934;28;20029;-86
2022/08/10 03:02:24;;;;;;;0.85;0.85;;;23.10;50.10;;;;;;4992802;28;20026;-86
2022/08/10 03:04:54;;;;;;;1.33;1.02;;;23.10;50.20;;;;;;4992914;28;20039;-85
2022/08/10 03:07:22;;;;;;;1.15;1.05;;;23.00;50.10;;;;;;4991649;28;20501;-85
2022/08/10 03:09:50;;;;;;;1.30;1.20;;;23.00;50.20;;;;;;4989042;28;20033;-85
2022/08/10 03:12:17;;;;;;;1.25;1.08;;;23.00;50.20;;;;;;4971714;28;20022;-86
2022/08/10 03:14:44;;;;;;;1.20;1.10;;;22.90;50.20;;;;;;5014089;28;20022;-85
2022/08/10 03:17:11;;;;;;;1.30;1.20;;;22.90;50.20;;;;;;4992156;28;20497;-85
2022/08/10 03:19:39;;;;;;;1.55;1.08;;;22.90;50.30;;;;;;4957822;28;20026;-86
2022/08/10 03:22:06;;;;;;;1.98;1.48;;;22.90;50.30;;;;;;4979924;28;20494;-86
2022/08/10 03:24:33;;;;;;;1.00;1.00;;;22.90;50.40;;;;;;5006236;28;20041;-85
2022/08/10 03:26:59;;;;;;;1.67;1.23;;;22.80;50.30;;;;;;5004892;28;20030;-85
2022/08/10 03:29:25;;;;;;;1.27;1.17;;;22.80;50.40;;;;;;4978080;28;20029;-85
2022/08/10 03:31:55;;;;;;;1.75;1.40;;;22.80;50.40;;;;;;4995368;28;20022;-85
2022/08/10 03:34:22;;;;;;;2.13;1.70;;;22.80;50.50;;;;;;4973223;28;20506;-84
2022/08/10 03:36:48;;;;;;;2.03;1.65;;;22.70;50.50;;;;;;4955076;28;20057;-85
2022/08/10 03:39:14;;;;;;;2.63;1.90;;;22.70;50.50;;;;;;5003161;28;20029;-84
2022/08/10 03:41:47;;;;;;;3.25;2.15;;;22.70;50.60;;;;;;4990440;28;20478;-85
2022/08/10 03:44:19;;;;;;;3.15;1.95;;;22.60;50.60;;;;;;4982819;28;20022;-85
2022/08/10 03:46:47;;;;;;;3.42;2.25;;;22.60;50.70;;;;;;4982889;28;20134;-86
2022/08/10 03:49:14;;;;;;;3.55;2.35;;;22.60;50.70;;;;;;4961329;28;20061;-86
2022/08/10 03:51:40;;;;;;;3.22;2.60;;;22.60;50.80;;;;;;4989164;28;20049;-83
2022/08/10 03:54:07;;;;;;;3.13;2.20;;;22.50;50.80;;;;;;4995133;28;20045;-86
2022/08/10 03:56:37;;;;;;;3.47;2.20;;;22.50;50.80;;;;;;4993207;28;20037;-86
2022/08/10 03:59:06;;;;;;;4.10;2.30;;;22.50;50.90;;;;;;4977215;28;20026;-87
2022/08/10 04:01:32;;;;;;;3.83;2.25;;;22.50;50.90;;;;;;4994674;28;20048;-85
2022/08/10 04:03:58;;;;;;;2.63;2.10;;;22.40;50.90;;;;;;4999379;28;20041;-86
2022/08/10 04:06:24;;;;;;;2.40;1.90;;;22.40;51.00;;;;;;4967348;28;20486;-86
2022/08/10 04:08:51;;;;;;;3.03;2.25;;;22.40;51.00;;;;;;4979275;28;20022;-86
2022/08/10 04:11:17;;;;;;;3.75;2.30;;;22.40;51.10;;;;;;5009698;28;20030;-86
2022/08/10 04:13:42;;;;;;;2.83;2.15;;;22.30;51.10;;;;;;4972359;28;20084;-85
2022/08/10 04:16:08;;;;;;;3.15;1.92;;;22.30;51.20;;;;;;4992346;28;20053;-86
2022/08/10 04:18:34;;;;;;;2.42;1.92;;;22.30;51.20;;;;;;4992083;28;20053;-86
2022/08/10 04:21:21;;;;;;;3.25;2.20;;;22.30;51.30;;;;;;4980691;28;20335;-86
2022/08/10 04:23:49;;;;;;;2.78;1.73;;;22.30;51.40;;;;;;4998161;28;20026;-87
2022/08/10 04:26:16;;;;;;;3.17;1.90;;;22.20;51.30;;;;;;4980237;28;20030;-88
2022/08/10 04:28:42;;;;;;;2.70;2.05;;;22.20;51.30;;;;;;4962483;28;20034;-85
2022/08/10 04:31:11;;;;;;;2.53;1.77;;;22.20;51.40;;;;;;4980602;28;20038;-86
2022/08/10 04:33:40;;;;;;;2.72;2.08;;;22.20;51.50;;;;;;4976729;28;20513;-87
2022/08/10 04:36:08;;;;;;;1.92;1.52;;;22.10;51.50;;;;;;4989010;28;20033;-85
2022/08/10 04:38:35;;;;;;;3.08;1.70;;;22.20;51.60;;;;;;4971968;28;20031;-85
2022/08/10 04:41:01;;;;;;;2.47;1.85;;;22.10;51.60;;;;;;4975131;28;20152;-85
2022/08/10 04:43:27;;;;;;;2.50;1.70;;;22.10;51.60;;;;;;4982650;28;20128;-82
2022/08/10 04:45:53;;;;;;;3.28;1.70;;;22.10;51.70;;;;;;4968148;28;20065;-83
2022/08/10 04:48:23;;;;;;;2.60;2.00;;;22.00;51.70;;;;;;4965554;28;20072;-85
2022/08/10 04:50:50;;;;;;;3.03;1.70;;;22.00;51.80;;;;;;4961925;28;20117;-84
2022/08/10 04:53:17;;;;;;;2.25;1.80;;;22.00;51.80;;;;;;4984710;28;20026;-84
2022/08/10 04:55:43;;;;;;;1.92;1.70;;;22.00;51.80;;;;;;4988756;28;20021;-84
2022/08/10 04:58:08;;;;;;;3.05;1.90;;;22.00;51.90;;;;;;4988206;28;20590;-84
2022/08/10 05:00:34;;;;;;;1.60;1.48;;;21.90;51.90;;;;;;4984137;28;20044;-85
2022/08/10 05:03:00;;;;;;;1.85;1.50;;;21.90;51.90;;;;;;4967771;28;20062;-85
2022/08/10 05:05:26;;;;;;;2.05;1.60;;;21.90;52.00;;;;;;4982804;28;20081;-85
2022/08/10 05:07:52;;;;;;;2.05;1.67;;;21.90;52.00;;;;;;4994384;28;20025;-83
2022/08/10 05:10:17;;;;;;;2.60;1.63;;;21.90;52.10;;;;;;4995439;28;20035;-84
2022/08/10 05:12:43;;;;;;;2.17;1.73;;;21.90;52.10;;;;;;4987506;28;20040;-86
2022/08/10 05:15:11;;;;;;;2.80;1.77;;;21.80;52.20;;;;;;4981840;28;20041;-86
2022/08/10 05:17:38;;;;;;;1.73;1.50;;;21.80;52.30;;;;;;4983051;28;20045;-86
2022/08/10 05:20:05;;;;;;;2.15;1.73;;;21.80;52.30;;;;;;4972448;28;20108;-86
2022/08/10 05:22:36;;;;;;;1.88;1.67;;;21.80;52.30;;;;;;4983293;28;20037;-84
2022/08/10 05:25:03;;;;;;;2.10;1.67;;;21.80;52.40;;;;;;4983791;28;20033;-83
2022/08/10 05:27:28;;;;;;;2.40;1.88;;;21.80;52.40;;;;;;4972351;28;20076;-83
2022/08/10 05:29:54;;;;;;;2.75;1.85;;;21.80;52.50;;;;;;4980404;28;20061;-85
2022/08/10 05:32:20;;;;;;;1.90;1.60;;;21.80;52.50;;;;;;4939070;28;20039;-84
2022/08/10 05:34:46;;;;;;;1.77;1.63;;;21.70;52.50;;;;;;4989876;28;20492;-84
2022/08/10 05:37:13;;;;;;;2.90;1.65;;;21.70;52.60;;;;;;5008780;28;20038;-84
2022/08/10 05:39:40;;;;;;;2.38;1.67;;;21.70;52.70;;;;;;4998163;28;20043;-82
2022/08/10 05:42:06;;;;;;;2.10;1.75;;;21.70;52.80;;;;;;4982083;28;20505;-82
2022/08/10 05:44:33;;;;;;;2.80;1.90;;;21.70;52.70;;;;;;4996111;28;20034;-84
2022/08/10 05:46:58;;;;;;;2.13;1.75;;;21.70;52.80;;;;;;4976172;28;20042;-83
2022/08/10 05:49:24;;;;;;;2.60;1.80;;;21.70;52.80;;;;;;4985110;28;20038;-84
2022/08/10 05:51:50;;;;;;;2.25;1.70;;;21.60;52.80;;;;;;4985158;28;20053;-85
2022/08/10 05:54:16;;;;;;;2.42;1.70;;;21.60;52.90;;;;;;5016879;28;20010;-86
2022/08/10 05:56:45;;;;;;;2.30;1.67;;;21.60;52.90;;;;;;5019590;28;20591;-86
2022/08/10 05:59:13;;;;;;;2.15;1.80;;;21.60;53.00;;;;;;4996215;28;20021;-86
2022/08/10 06:01:43;;;;;;;3.10;1.92;;;21.60;53.00;;;;;;4981862;28;20080;-86
2022/08/10 06:04:14;;;;;;;2.67;1.70;;;21.60;53.10;;;;;;4982807;28;20034;-86
2022/08/10 06:06:44;;;;;;;2.45;1.98;;;21.60;53.10;;;;;;5000607;28;20048;-87
2022/08/10 06:09:11;;;;;;;2.15;1.65;;;21.60;53.10;;;;;;4974646;28;20030;-86
2022/08/10 06:11:37;;;;;;;2.92;2.00;;;21.60;53.10;;;;;;4977855;28;20097;-87
2022/08/10 06:16:50;;;;;;;2.08;1.83;;;21.60;53.20;;;;;;5007930;28;20026;-87
2022/08/10 06:19:21;;;;;;;2.45;1.98;;;21.60;53.20;;;;;;4990884;28;20042;-88
2022/08/10 06:21:48;;;;;;;2.90;2.00;;;21.60;53.30;;;;;;5002025;28;20110;-88
2022/08/10 06:24:16;;;;;;;2.55;2.08;;;21.60;53.30;;;;;;5010593;28;20093;-89
2022/08/10 06:26:43;;;;;;;2.42;1.90;;;21.50;53.30;;;;;;4985282;28;21031;-88
2022/08/10 06:29:13;;;;;;;2.40;1.70;;;21.60;53.30;;;;;;4990701;28;20044;-88
2022/08/10 06:31:43;;;;;;;2.55;1.98;;;21.60;53.40;;;;;;4974890;28;20026;-88
2022/08/10 06:34:11;;;;;;;3.15;2.00;;;21.60;53.40;;;;;;4990780;28;20552;-87
2022/08/10 06:36:40;;;;;;;3.85;2.08;;;21.60;54.00;;;;;;4973051;28;20022;-87
2022/08/10 06:39:06;;;;;;;2.45;1.75;;;21.60;53.40;;;;;;4980804;28;20136;-88
2022/08/10 06:41:35;;;;;;;2.30;1.73;;;21.60;53.50;;;;;;4992910;28;20037;-88
2022/08/10 06:44:08;;;;;;;2.75;1.60;;;21.60;53.50;;;;;;5013944;28;20537;-90
2022/08/10 06:46:38;;;;;;;2.35;1.80;;;21.60;53.60;;;;;;4991563;28;20038;-88
2022/08/10 06:49:06;;;;;;;2.22;1.67;;;21.60;53.50;;;;;;5005411;28;20033;-88
2022/08/10 06:51:39;;;;;;;3.05;1.92;;;21.60;53.50;;;;;;4990541;28;20088;-89
2022/08/10 06:54:09;;;;;;;2.20;1.65;;;21.60;53.60;;;;;;4982157;28;20844;-88
2022/08/10 06:56:44;;;;;;;2.38;1.70;;;21.60;53.50;;;;;;4983141;28;20032;-89
2022/08/10 06:59:17;;;;;;;2.78;1.55;;;21.60;53.60;;;;;;4984500;28;20378;-89
2022/08/10 07:01:47;;;;;;;2.65;1.70;;;21.60;53.60;;;;;;5009598;28;20474;-89
2022/08/10 07:04:20;;;;;;;2.85;1.80;;;21.60;53.60;;;;;;4973515;28;20022;-88
2022/08/10 07:06:48;;;;;;;2.97;2.00;;;21.60;53.60;;;;;;4999228;28;20496;-88
2022/08/10 07:09:15;;;;;;;2.03;1.80;;;21.60;53.60;;;;;;4993298;28;20036;-88
2022/08/10 07:11:43;;;;;;;2.55;1.67;;;21.60;53.60;;;;;;4977944;28;20037;-86
2022/08/10 07:14:15;;;;;;;2.85;2.00;;;21.60;53.70;;;;;;4986297;28;20117;-88
2022/08/10 07:16:43;;;;;;;2.13;1.70;;;21.60;53.70;;;;;;5004034;28;20536;-88
2022/08/10 07:19:10;;;;;;;2.08;1.60;;;21.70;53.70;;;;;;4993463;28;20026;-88
2022/08/10 07:21:42;;;;;;;2.05;1.60;;;21.60;53.70;;;;;;4975101;28;20041;-89
2022/08/10 07:24:09;;;;;;;1.85;1.65;;;21.60;53.70;;;;;;4981304;28;20022;-88
2022/08/10 07:26:37;;;;;;;1.92;1.55;;;21.70;53.70;;;;;;4974572;28;20038;-87
2022/08/10 07:29:05;;;;;;;2.45;1.95;;;21.70;53.80;;;;;;4983771;28;20157;-88
2022/08/10 07:31:31;;;;;;;1.95;1.60;;;21.70;53.80;;;;;;4994849;28;20108;-84
2022/08/10 07:33:58;;;;;;;2.10;1.60;;;21.70;53.80;;;;;;4991924;28;20526;-86
2022/08/10 07:36:26;;;;;;;2.60;1.88;;;21.70;53.70;;;;;;4992184;28;20022;-85
2022/08/10 07:38:54;;;;;;;1.85;1.58;;;21.70;53.80;;;;;;4982420;28;20030;-85
2022/08/10 07:41:23;;;;;;;3.72;1.80;;;21.70;53.80;;;;;;5002360;28;20070;-85
2022/08/10 07:43:51;;;;;;;1.63;1.52;;;21.70;53.80;;;;;;5001920;28;20064;-85
2022/08/10 07:46:21;;;;;;;3.33;1.80;;;21.70;53.80;;;;;;4996465;28;20050;-84
2022/08/10 07:48:53;;;;;;;2.67;1.75;;;21.80;53.90;;;;;;5001103;28;20117;-86
2022/08/10 07:51:21;;;;;;;1.60;1.50;;;21.80;53.90;;;;;;4990165;28;20026;-86
2022/08/10 07:53:51;;;;;;;2.67;1.65;;;21.80;53.80;;;;;;4982524;28;20033;-85
2022/08/10 07:56:22;;;;;;;2.15;1.50;;;21.80;53.90;;;;;;4985469;28;20030;-85
2022/08/10 07:58:53;;;;;;;3.13;1.67;;;21.80;53.90;;;;;;4994235;28;20026;-86
2022/08/10 08:01:21;;;;;;;2.20;1.60;;;21.90;53.90;;;;;;4973637;28;20065;-88
2022/08/10 08:03:48;;;;;;;2.55;1.60;;;21.90;53.90;;;;;;4978645;28;20037;-87
2022/08/10 08:06:15;;;;;;;2.47;1.85;;;21.90;53.80;;;;;;4991530;28;20045;-89
2022/08/10 08:08:42;;;;;;;2.67;1.90;;;22.00;53.90;;;;;;4980472;28;20038;-88
2022/08/10 08:11:10;;;;;;;2.35;1.90;;;22.00;53.80;;;;;;4971726;28;20029;-87
2022/08/10 08:13:38;;;;;;;2.97;1.88;;;22.10;53.80;;;;;;4987228;28;20030;-88
2022/08/10 08:16:05;;;;;;;1.98;1.77;;;22.10;53.80;;;;;;4994436;28;20111;-90
2022/08/10 08:18:34;;;;;;;2.35;1.70;;;22.10;53.70;;;;;;4996536;28;20486;-88
2022/08/10 08:21:01;;;;;;;2.90;1.80;;;22.20;53.70;;;;;;4991938;28;20030;-90
2022/08/10 08:23:29;;;;;;;1.58;1.48;;;22.20;53.50;;;;;;4968893;28;20170;-89
2022/08/10 08:25:56;;;;;;;3.33;1.88;;;22.30;53.50;;;;;;5001081;28;20059;-90
2022/08/10 08:28:23;;;;;;;1.77;1.38;;;22.40;53.50;;;;;;4987805;28;20041;-87
2022/08/10 08:30:51;;;;;;;1.92;1.52;;;22.40;53.40;;;;;;5011939;28;20093;-87
2022/08/10 08:33:18;;;;;;;2.08;1.40;;;22.50;53.40;;;;;;4998446;28;20045;-90
2022/08/10 08:35:44;;;;;;;2.85;1.77;;;22.60;53.30;;;;;;4950427;28;20026;-85
2022/08/10 08:38:12;;;;;;;2.10;1.67;;;22.60;53.20;;;;;;4983129;28;20037;-88
2022/08/10 08:40:43;;;;;;;2.20;1.38;;;22.70;53.20;;;;;;4996674;28;20094;-87
2022/08/10 08:43:33;;;;;;;2.40;1.60;;;22.80;53.10;;;;;;4993982;28;20022;-89
2022/08/10 08:46:18;;;;;;;2.85;1.60;;;22.90;53.10;;;;;;4977021;28;20078;-88
2022/08/10 08:48:49;;;;;;;1.98;1.48;;;22.90;53.00;;;;;;4982346;28;20077;-87
2022/08/10 08:51:36;;;;;;;1.90;1.60;;;23.00;52.80;;;;;;4980566;28;20168;-88
2022/08/10 08:54:31;;;;;;;2.80;1.65;;;23.10;52.90;;;;;;4978348;28;20075;-87
2022/08/10 08:57:03;;;;;;;1.65;1.33;;;23.20;52.80;;;;;;5009171;28;20060;-87
2022/08/10 08:59:47;;;;;;;1.92;1.50;;;23.30;52.70;;;;;;4996044;28;20589;-87
2022/08/10 09:02:38;;;;;;;1.70;1.42;;;23.30;52.50;;;;;;4979854;28;20030;-88
2022/08/10 09:05:41;;;;;;;1.75;1.30;;;23.50;52.60;;;;;;4981424;28;20042;-87
2022/08/10 09:08:33;;;;;;;2.65;1.40;;;23.50;52.50;;;;;;4975303;28;20030;-87
2022/08/10 09:11:24;;;;;;;1.38;1.20;;;23.60;52.40;;;;;;4976713;28;20026;-88
2022/08/10 09:13:53;;;;;;;1.45;1.17;;;23.70;52.40;;;;;;4981360;28;20019;-88
2022/08/10 09:16:58;;;;;;;3.10;1.70;;;23.80;52.20;;;;;;5004138;28;20029;-88
2022/08/10 09:19:45;;;;;;;1.98;1.40;;;23.90;52.30;;;;;;4947746;28;20081;-88
2022/08/10 09:22:43;;;;;;;2.38;1.40;;;24.10;52.20;;;;;;5001873;28;20458;-87
2022/08/10 09:25:19;;;;;;;1.83;1.25;;;24.20;52.20;;;;;;4990012;28;20049;-87
2022/08/10 09:27:51;;;;;;;1.52;1.38;;;24.30;52.00;;;;;;5012776;28;20026;-87
2022/08/10 09:30:57;;;;;;;1.77;1.40;;;24.40;51.90;;;;;;5020194;28;20105;-88
2022/08/10 09:33:48;;;;;;;1.98;1.42;;;24.50;52.00;;;;;;4990999;28;20034;-88
2022/08/10 09:36:19;;;;;;;1.73;1.48;;;24.60;51.90;;;;;;5015057;28;20045;-87
2022/08/10 09:39:04;;;;;;;2.80;1.38;;;24.70;51.80;;;;;;5006081;28;20454;-88
2022/08/10 09:42:09;;;;;;;1.38;1.27;;;24.80;51.70;;;;;;4972620;28;20100;-90
2022/08/10 09:45:01;;;;;;;1.73;1.35;;;24.90;51.70;;;;;;5009292;28;20400;-88
2022/08/10 09:47:41;;;;;;;2.60;1.50;;;25.10;51.70;;;;;;4999427;28;20037;-88
2022/08/10 09:50:36;;;;;;;1.95;1.40;;;25.20;51.60;;;;;;5001007;28;20029;-87
2022/08/10 09:53:19;;;;;;;1.43;1.10;;;25.30;51.60;;;;;;4972992;28;20021;-88
2022/08/10 09:56:02;;;;;;;1.40;1.20;;;25.40;51.50;;;;;;4996370;28;20433;-89
2022/08/10 09:58:40;;;;;;;1.08;1.02;;;25.50;51.40;;;;;;5001041;28;20025;-88
2022/08/10 10:01:26;;;;;;;1.33;1.15;;;25.60;51.30;;;;;;4976117;28;20585;-89
2022/08/10 10:04:14;;;;;;;1.45;1.35;;;25.70;51.30;;;;;;4992852;28;20374;-85
2022/08/10 10:06:57;;;;;;;2.67;1.40;;;25.80;51.30;;;;;;4981100;28;20093;-85
2022/08/10 10:09:38;;;;;;;1.20;1.10;;;26.00;51.30;;;;;;4992435;28;20026;-88
2022/08/10 10:12:34;;;;;;;1.73;1.40;;;26.10;51.20;;;;;;4998636;28;20386;-85
2022/08/10 10:15:21;;;;;;;2.35;1.65;;;26.10;51.10;;;;;;5016707;28;20026;-87
2022/08/10 10:18:02;;;;;;;1.83;1.15;;;26.30;51.10;;;;;;5007313;28;20033;-87
2022/08/10 10:20:41;;;;;;;1.30;1.13;;;26.40;51.00;;;;;;4996376;28;20109;-87
2022/08/10 10:23:28;;;;;;;1.88;1.27;;;26.50;51.00;;;;;;4995812;28;20466;-86
2022/08/10 10:26:28;;;;;;;0.98;0.98;;;26.50;50.70;;;;;;4995551;28;20026;-88
2022/08/10 10:29:02;;;;;;;2.30;1.35;;;26.60;50.80;;;;;;4991433;28;20034;-86
2022/08/10 10:31:56;;;;;;;1.33;1.08;;;26.80;50.70;;;;;;4976406;28;20097;-87
2022/08/10 10:34:50;;;;;;;1.05;1.00;;;26.90;50.70;;;;;;5015681;28;20025;-88
2022/08/10 10:37:19;;;;;;;1.23;1.13;;;27.00;50.60;;;;;;4986682;28;20037;-90
2022/08/10 10:39:51;;;;;;;1.20;1.10;;;27.10;50.40;;;;;;4990386;28;20041;-85
2022/08/10 10:42:45;;;;;;;1.55;1.17;;;27.20;50.30;;;;;;4990644;28;20030;-86
2022/08/10 10:45:19;;;;;;;1.98;1.35;;;27.30;50.40;;;;;;4986911;28;20034;-88
2022/08/10 10:48:00;;;;;;;1.95;1.20;;;27.30;50.20;;;;;;5014756;28;20037;-87
2022/08/10 10:50:59;;;;;;;1.08;1.08;;;27.40;50.10;;;;;;4979152;28;20057;-87
2022/08/10 10:53:43;;;;;;;1.75;1.10;;;27.50;50.20;;;;;;4995864;28;20031;-86
2022/08/10 10:56:26;;;;;;;1.40;0.98;;;27.70;50.10;;;;;;5014586;28;20034;-86
2022/08/10 10:59:14;;;;;;;1.17;1.08;;;27.80;50.10;;;;;;4995333;28;20041;-86
2022/08/10 11:01:57;;;;;;;1.42;1.27;;;27.80;50.00;;;;;;4988579;28;20030;-86
2022/08/10 11:04:34;;;;;;;1.60;1.10;;;27.90;49.90;;;;;;4993502;28;20029;-84
2022/08/10 11:07:27;;;;;;;2.05;1.08;;;28.00;49.80;;;;;;4995644;28;20386;-85
2022/08/10 11:09:57;;;;;;;1.40;1.15;;;28.10;49.80;;;;;;4986667;28;20021;-84
2022/08/10 11:12:41;;;;;;;1.25;1.10;;;28.30;49.80;;;;;;4978916;28;20020;-85
2022/08/10 11:15:17;;;;;;;0.90;0.90;;;28.30;49.70;;;;;;4972261;28;20382;-85
2022/08/10 11:18:02;;;;;;;0.98;0.90;;;28.40;49.70;;;;;;4997714;28;20067;-87
2022/08/10 11:20:42;;;;;;;1.10;1.05;;;28.50;49.70;;;;;;5003079;28;20170;-86
2022/08/10 11:23:24;;;;;;;1.55;1.05;;;28.50;49.70;;;;;;4970824;28;20040;-86
2022/08/10 11:26:15;;;;;;;1.05;0.95;;;28.60;49.70;;;;;;4977994;28;20110;-86
2022/08/10 11:28:48;;;;;;;1.08;0.88;;;28.60;49.70;;;;;;4972807;28;20042;-87
2022/08/10 11:31:14;;;;;;;1.25;1.15;;;28.70;49.70;;;;;;4986620;28;20025;-86
2022/08/10 11:33:59;;;;;;;2.47;1.00;;;28.70;49.70;;;;;;5012918;28;20037;-84
2022/08/10 11:36:46;;;;;;;1.20;1.10;;;28.80;49.80;;;;;;4986942;28;20082;-86
2022/08/10 11:39:24;;;;;;;1.00;0.90;;;28.80;49.80;;;;;;4988689;28;20069;-87
2022/08/10 11:41:55;;;;;;;1.13;1.02;;;28.80;49.90;;;;;;5008426;28;20026;-87
2022/08/10 11:44:51;;;;;;;0.68;0.65;;;28.90;50.60;;;;;;5012345;28;20525;-87
2022/08/10 11:47:36;;;;;;;1.27;1.00;;;28.90;50.30;;;;;;5010082;28;20477;-87
2022/08/10 11:50:13;;;;;;;0.90;0.90;;;28.90;50.40;;;;;;4995843;28;20068;-86
2022/08/10 11:52:52;;;;;;;1.30;1.00;;;29.00;50.60;;;;;;5004677;28;20109;-85
2022/08/10 11:55:20;;;;;;;1.42;1.05;;;29.00;50.60;;;;;;4978523;28;20032;-88
2022/08/10 11:57:50;;;;;;;0.90;0.90;;;29.10;50.80;;;;;;4994039;28;20033;-87
2022/08/10 12:00:16;;;;;;;1.63;1.10;;;29.10;50.80;;;;;;4987621;28;20030;-87
2022/08/10 12:02:56;;;;;;;0.93;0.82;;;29.20;50.80;;;;;;5006935;28;20169;-85
2022/08/10 12:05:28;;;;;;;1.27;0.90;;;29.20;50.90;;;;;;4989362;28;20093;-86
2022/08/10 12:07:57;;;;;;;0.93;0.90;;;29.20;50.80;;;;;;4994386;28;20068;-86
2022/08/10 12:10:25;;;;;;;1.00;0.90;;;29.20;50.90;;;;;;4989749;28;20038;-87
2022/08/10 12:13:08;;;;;;;1.45;1.02;;;29.30;51.00;;;;;;4978955;28;20452;-86
2022/08/10 12:15:47;;;;;;;1.60;1.00;;;29.30;51.10;;;;;;4990142;28;20487;-87
2022/08/10 12:18:18;;;;;;;0.73;0.73;;;29.40;51.10;;;;;;4985894;28;20022;-86
2022/08/10 12:20:50;;;;;;;0.80;0.80;;;29.30;51.00;;;;;;4978733;28;20066;-87
2022/08/10 12:23:28;;;;;;;1.20;1.00;;;29.40;51.00;;;;;;4991028;28;20029;-86
2022/08/10 12:26:07;;;;;;;0.95;0.82;;;29.40;50.90;;;;;;4970120;28;20026;-86
2022/08/10 12:28:53;;;;;;;1.00;0.90;;;29.40;50.90;;;;;;4977338;28;20041;-84
2022/08/10 12:31:58;;;;;;;0.70;0.70;;;29.40;50.80;;;;;;4988054;28;20121;-86
2022/08/10 12:34:38;;;;;;;;;;;29.50;50.80;;;;;;4964908;28;20138;-84
2022/08/10 12:37:19;;;;;;;1.10;1.00;;;29.50;50.70;;;;;;4973521;28;19960;-86
2022/08/10 12:40:14;;;;;;;0.80;0.80;;;29.50;50.50;;;;;;5009600;28;20040;-86
2022/08/10 12:43:14;;;;;;;0.80;0.73;;;29.50;50.50;;;;;;4986533;28;20038;-86
2022/08/10 12:46:14;;;;;;;1.27;0.90;;;29.50;50.40;;;;;;4989625;28;20057;-86
2022/08/10 12:48:58;;;;;;;0.95;0.90;;;29.50;50.30;;;;;;4955701;28;20034;-86
2022/08/10 12:51:30;;;;;;;0.88;0.88;;;29.50;50.20;;;;;;4968773;28;20065;-86
2022/08/10 12:54:19;;;;;;;0.82;0.82;;;29.50;50.00;;;;;;4951560;28;20022;-89
2022/08/10 12:56:51;;;;;;;1.08;0.90;;;29.50;50.00;;;;;;4983501;28;20037;-87
2022/08/10 12:59:18;;;;;;;0.90;0.80;;;29.60;49.80;;;;;;4951384;28;20026;-89
2022/08/10 13:01:51;;;;;;;2.10;0.82;;;29.60;49.70;;;;;;4974988;28;20022;-86
2022/08/10 13:04:31;;;;;;;0.65;0.65;;;29.60;49.50;;;;;;4974185;28;20070;-86
2022/08/10 13:07:02;;;;;;;1.10;1.00;;;29.60;49.40;;;;;;4982749;28;20035;-86
2022/08/10 13:09:30;;;;;;;1.00;0.90;;;29.60;49.20;;;;;;4975080;28;20030;-86
2022/08/10 13:11:58;;;;;;;0.80;0.80;;;29.60;49.20;;;;;;4929122;28;20077;-89
2022/08/10 13:14:37;;;;;;;1.13;1.00;;;29.60;49.20;;;;;;4958524;28;20023;-85
2022/08/10 13:17:05;;;;;;;1.00;0.88;;;29.70;49.20;;;;;;4955795;28;20122;-86
2022/08/10 13:19:36;;;;;;;0.93;0.90;;;29.70;49.00;;;;;;4974363;28;20057;-85
2022/08/10 13:22:05;;;;;;;0.98;0.90;;;29.70;49.00;;;;;;4960901;28;20085;-87
2022/08/10 13:24:36;;;;;;;0.63;0.63;;;29.70;49.00;;;;;;4958035;28;20030;-87